Time;durP1;ratioP1;P1;durP2;ratioP2;P2;SDS_P1;SDS_P2;PMS_P1;PMS_P2;Temp;Humidity;BMP_temperature;BMP_pressure;BME280_temperature;BME280_humidity;BME280_pressure;Samples;Min_cycle;Max_cycle;Signal;HPM_P1;HPM_P2
2021/12/03 00:01:11;;;;;;;5.27;4.67;;;;;;;;;;5051490;28;20221;-88
2021/12/03 00:03:39;;;;;;;5.90;5.30;;;;;;;;;;5051668;28;20250;-89
2021/12/03 00:06:06;;;;;;;6.47;4.93;;;;;;;;;;5050708;28;20296;-89
2021/12/03 00:08:37;;;;;;;5.07;4.50;;;;;;;;;;5051101;28;20194;-88
2021/12/03 00:11:05;;;;;;;7.73;4.90;;;;;;;;;;5051419;28;20179;-88
2021/12/03 00:13:34;;;;;;;7.20;6.03;;;;;;;;;;5051212;28;20194;-89
2021/12/03 00:16:03;;;;;;;6.47;5.13;;;;;;;;;;5051320;28;20206;-89
2021/12/03 00:18:31;;;;;;;11.10;6.90;;;;;;;;;;5051148;28;20225;-88
2021/12/03 00:21:01;;;;;;;9.20;6.97;;;;;;;;;;5051072;28;20203;-89
2021/12/03 00:23:28;;;;;;;8.87;5.60;;;;;;;;;;5051609;28;20282;-89
2021/12/03 00:25:55;;;;;;;24.90;15.17;;;;;;;;;;5051349;27;20201;-89
2021/12/03 00:28:23;;;;;;;15.67;9.10;;;;;;;;;;5051163;28;20210;-89
2021/12/03 00:30:51;;;;;;;15.93;5.87;;;;;;;;;;5050909;28;20202;-89
2021/12/03 00:33:19;;;;;;;8.13;5.30;;;;;;;;;;5050670;28;20204;-88
2021/12/03 00:35:46;;;;;;;12.37;8.20;;;;;;;;;;5050535;28;20197;-88
2021/12/03 00:38:15;;;;;;;9.43;6.73;;;;;;;;;;5050565;28;20251;-88
2021/12/03 00:40:42;;;;;;;6.63;5.47;;;;;;;;;;5050801;28;20197;-89
2021/12/03 00:43:12;;;;;;;8.27;6.67;;;;;;;;;;5050566;28;20197;-88
2021/12/03 00:45:42;;;;;;;8.80;5.33;;;;;;;;;;5050945;28;20288;-89
2021/12/03 00:48:11;;;;;;;5.63;4.90;;;;;;;;;;5050924;28;20194;-88
2021/12/03 00:50:38;;;;;;;11.83;8.13;;;;;;;;;;5050753;28;20238;-88
2021/12/03 00:53:06;;;;;;;5.93;4.93;;;;;;;;;;5050343;28;20658;-88
2021/12/03 00:55:34;;;;;;;7.57;5.47;;;;;;;;;;5050458;28;20231;-88
2021/12/03 00:58:01;;;;;;;8.33;5.37;;;;;;;;;;5050434;28;20340;-89
2021/12/03 01:00:30;;;;;;;5.83;4.87;;;;;;;;;;5050183;28;20217;-88
2021/12/03 01:02:59;;;;;;;7.33;4.87;;;;;;;;;;5050268;27;20689;-89
2021/12/03 01:05:31;;;;;;;5.43;4.70;;;;;;;;;;5050537;28;20237;-89
2021/12/03 01:07:59;;;;;;;10.23;8.13;;;;;;;;;;5050443;28;20688;-89
2021/12/03 01:10:26;;;;;;;6.17;5.57;;;;;;;;;;5050681;28;20228;-89
2021/12/03 01:12:54;;;;;;;7.27;4.60;;;;;;;;;;5050488;28;20228;-89
2021/12/03 01:15:24;;;;;;;5.43;4.93;;;;;;;;;;5050716;28;20194;-89
2021/12/03 01:17:52;;;;;;;6.30;4.27;;;;;;;;;;5050078;28;20202;-88
2021/12/03 01:20:20;;;;;;;6.13;4.40;;;;;;;;;;5050693;28;20581;-89
2021/12/03 01:22:52;;;;;;;5.50;4.93;;;;;;;;;;5050475;28;20235;-89
2021/12/03 01:25:21;;;;;;;5.67;4.73;;;;;;;;;;5050335;28;20638;-89
2021/12/03 01:27:48;;;;;;;4.73;4.27;;;;;;;;;;5050228;28;20209;-89
2021/12/03 01:30:18;;;;;;;4.23;3.83;;;;;;;;;;5050101;28;20233;-89
2021/12/03 01:32:45;;;;;;;5.97;4.90;;;;;;;;;;5050162;28;20206;-89
2021/12/03 01:35:13;;;;;;;4.93;4.37;;;;;;;;;;5050236;28;20208;-90
2021/12/03 01:37:41;;;;;;;5.30;4.50;;;;;;;;;;5050387;28;20202;-89
2021/12/03 01:40:13;;;;;;;6.30;4.97;;;;;;;;;;5049791;28;20224;-90
2021/12/03 01:42:42;;;;;;;5.33;4.17;;;;;;;;;;5049997;28;20235;-88
2021/12/03 01:45:10;;;;;;;7.20;4.37;;;;;;;;;;5049599;28;20197;-89
2021/12/03 01:47:37;;;;;;;5.47;4.90;;;;;;;;;;5050166;28;20276;-88
2021/12/03 01:50:06;;;;;;;5.00;4.27;;;;;;;;;;5049453;28;20262;-88
2021/12/03 01:52:33;;;;;;;5.27;4.77;;;;;;;;;;5030085;28;20596;-88
2021/12/03 01:55:04;;;;;;;5.10;4.27;;;;;;;;;;5029534;28;20290;-88
2021/12/03 01:57:37;;;;;;;5.90;4.67;;;;;;;;;;5049356;28;20202;-89
2021/12/03 02:00:06;;;;;;;4.77;4.27;;;;;;;;;;5048794;28;20254;-89
2021/12/03 02:02:33;;;;;;;5.97;5.07;;;;;;;;;;5050186;28;20201;-88
2021/12/03 02:05:01;;;;;;;5.00;4.50;;;;;;;;;;5049215;28;20209;-88
2021/12/03 02:07:28;;;;;;;4.73;3.57;;;;;;;;;;5049484;28;20233;-88
2021/12/03 02:09:56;;;;;;;5.40;4.30;;;;;;;;;;5049617;28;20194;-88
2021/12/03 02:12:23;;;;;;;5.47;4.57;;;;;;;;;;5049362;28;20190;-88
2021/12/03 02:14:52;;;;;;;5.17;4.67;;;;;;;;;;5049417;28;20235;-88
2021/12/03 02:17:19;;;;;;;5.37;4.83;;;;;;;;;;5049696;28;20651;-88
2021/12/03 02:19:50;;;;;;;5.27;4.00;;;;;;;;;;5049631;28;20261;-89
2021/12/03 02:22:19;;;;;;;7.43;3.67;;;;;;;;;;5049375;28;20194;-87
2021/12/03 02:24:47;;;;;;;15.70;8.13;;;;;;;;;;5049239;28;20201;-88
2021/12/03 02:27:14;;;;;;;11.83;8.53;;;;;;;;;;5049328;28;20231;-90
2021/12/03 02:29:41;;;;;;;7.60;5.10;;;;;;;;;;5049660;28;20229;-89
2021/12/03 02:32:09;;;;;;;6.90;5.73;;;;;;;;;;5049437;28;20259;-87
2021/12/03 02:34:36;;;;;;;5.73;5.10;;;;;;;;;;5049356;28;20198;-89
2021/12/03 02:37:04;;;;;;;7.43;5.67;;;;;;;;;;5049245;28;20248;-90
2021/12/03 02:39:33;;;;;;;5.63;5.13;;;;;;;;;;5049124;28;20799;-89
2021/12/03 02:42:00;;;;;;;9.80;6.63;;;;;;;;;;5049001;28;20251;-90
2021/12/03 02:44:28;;;;;;;28.67;17.07;;;;;;;;;;5049169;27;20228;-89
2021/12/03 02:46:55;;;;;;;31.93;20.60;;;;;;;;;;5049298;28;20198;-89
2021/12/03 02:49:22;;;;;;;35.37;21.80;;;;;;;;;;5049224;28;20198;-88
2021/12/03 02:51:49;;;;;;;19.07;13.63;;;;;;;;;;5049132;28;20186;-89
2021/12/03 02:54:17;;;;;;;20.87;15.43;;;;;;;;;;5049405;28;20282;-89
2021/12/03 02:56:46;;;;;;;5.87;4.80;;;;;;;;;;5049194;28;20639;-89
2021/12/03 02:59:13;;;;;;;14.67;13.17;;;;;;;;;;5048818;28;20195;-88
2021/12/03 03:01:40;;;;;;;7.03;6.23;;;;;;;;;;5048107;28;20259;-89
2021/12/03 03:04:07;;;;;;;5.77;4.53;;;;;;;;;;5048742;28;20240;-88
2021/12/03 03:06:36;;;;;;;10.10;6.93;;;;;;;;;;5048892;28;20586;-89
2021/12/03 03:09:08;;;;;;;6.27;5.67;;;;;;;;;;5048734;28;20209;-88
2021/12/03 03:11:35;;;;;;;6.83;5.57;;;;;;;;;;5048736;28;20182;-89
2021/12/03 03:14:06;;;;;;;5.67;4.87;;;;;;;;;;5048888;28;20255;-88
2021/12/03 03:16:34;;;;;;;9.13;8.03;;;;;;;;;;5048932;28;20189;-90
2021/12/03 03:19:10;;;;;;;8.97;8.17;;;;;;;;;;5051847;28;20198;-87
2021/12/03 03:21:38;;;;;;;8.73;7.73;;;;;;;;;;5051680;28;20190;-87
2021/12/03 03:24:07;;;;;;;7.27;6.47;;;;;;;;;;5051597;28;20670;-87
2021/12/03 03:26:35;;;;;;;6.47;5.50;;;;;;;;;;5051583;28;20202;-88
2021/12/03 03:29:04;;;;;;;5.47;4.97;;;;;;;;;;5051397;28;20202;-87
2021/12/03 03:31:33;;;;;;;5.53;4.50;;;;;;;;;;5051279;28;20194;-87
2021/12/03 03:34:00;;;;;;;6.27;4.73;;;;;;;;;;5051440;28;20570;-87
2021/12/03 03:36:28;;;;;;;5.13;4.30;;;;;;;;;;5051555;28;20205;-87
2021/12/03 03:38:55;;;;;;;6.97;4.57;;;;;;;;;;5044731;28;20226;-87
2021/12/03 03:41:23;;;;;;;6.17;4.87;;;;;;;;;;5038484;28;20260;-87
2021/12/03 03:43:51;;;;;;;9.20;4.50;;;;;;;;;;5051283;28;20288;-88
2021/12/03 03:46:18;;;;;;;4.90;4.03;;;;;;;;;;5033056;28;20213;-87
2021/12/03 03:48:47;;;;;;;4.77;4.30;;;;;;;;;;5031504;28;20636;-87
2021/12/03 03:51:14;;;;;;;5.17;4.23;;;;;;;;;;5037888;28;20234;-87
2021/12/03 03:53:41;;;;;;;6.83;4.43;;;;;;;;;;5048203;28;20214;-87
2021/12/03 03:56:09;;;;;;;6.60;4.40;;;;;;;;;;5036665;28;20556;-87
2021/12/03 03:58:37;;;;;;;4.17;3.73;;;;;;;;;;5050836;28;20202;-87
2021/12/03 04:01:05;;;;;;;6.93;5.27;;;;;;;;;;5050898;28;20317;-87
2021/12/03 04:03:32;;;;;;;7.40;6.57;;;;;;;;;;5038848;28;20242;-87
2021/12/03 04:06:01;;;;;;;12.73;7.37;;;;;;;;;;5031420;28;20234;-88
2021/12/03 04:08:29;;;;;;;12.43;8.97;;;;;;;;;;5030779;28;20191;-87
2021/12/03 04:10:57;;;;;;;11.43;9.70;;;;;;;;;;5030842;28;20202;-87
2021/12/03 04:13:24;;;;;;;186.33;103.57;;;;;;;;;;5031085;28;20203;-87
2021/12/03 04:15:51;;;;;;;76.23;48.40;;;;;;;;;;5030742;28;20238;-84
2021/12/03 04:18:18;;;;;;;13.73;10.37;;;;;;;;;;5031033;28;20263;-87
2021/12/03 04:20:46;;;;;;;17.90;10.43;;;;;;;;;;5040972;28;20222;-87
2021/12/03 04:23:18;;;;;;;36.53;19.53;;;;;;;;;;5050888;28;20201;-88
2021/12/03 04:25:45;;;;;;;18.03;11.70;;;;;;;;;;5050825;28;20242;-88
2021/12/03 04:28:13;;;;;;;19.90;12.63;;;;;;;;;;5048057;28;20206;-89
2021/12/03 04:30:41;;;;;;;71.50;37.43;;;;;;;;;;5050907;28;20202;-89
2021/12/03 04:33:09;;;;;;;89.33;46.63;;;;;;;;;;5068274;27;20658;-89
2021/12/03 04:35:37;;;;;;;106.67;65.03;;;;;;;;;;5156268;27;20646;-89
2021/12/03 04:38:04;;;;;;;48.77;32.27;;;;;;;;;;5155598;27;20204;-89
2021/12/03 04:40:33;;;;;;;28.20;19.40;;;;;;;;;;5155744;27;21029;-89
2021/12/03 04:43:01;;;;;;;15.27;10.50;;;;;;;;;;5155475;27;20692;-89
2021/12/03 04:45:29;;;;;;;13.43;10.60;;;;;;;;;;5155476;27;20251;-88
2021/12/03 04:47:58;;;;;;;39.67;22.87;;;;;;;;;;5155581;27;20342;-88
2021/12/03 04:50:28;;;;;;;67.57;34.23;;;;;;;;;;5155548;27;20282;-89
2021/12/03 04:52:55;;;;;;;64.43;36.37;;;;;;;;;;5155875;27;20625;-89
2021/12/03 04:55:23;;;;;;;30.63;19.60;;;;;;;;;;5155436;27;20190;-89
2021/12/03 04:57:53;;;;;;;32.70;20.80;;;;;;;;;;5155186;27;20193;-89
2021/12/03 05:00:24;;;;;;;22.97;15.33;;;;;;;;;;5155181;27;20201;-89
2021/12/03 05:02:52;;;;;;;12.13;9.80;;;;;;;;;;5155369;27;20185;-88
2021/12/03 05:05:22;;;;;;;15.57;10.27;;;;;;;;;;5155256;27;20193;-88
2021/12/03 05:07:58;;;;;;;58.67;38.87;;;;;;;;;;5154721;27;20680;-88
2021/12/03 05:10:26;;;;;;;29.97;23.13;;;;;;;;;;5155230;27;20188;-89
2021/12/03 05:12:58;;;;;;;22.97;17.23;;;;;;;;;;5155149;27;20251;-89
2021/12/03 05:15:25;;;;;;;52.50;34.10;;;;;;;;;;5155002;27;20182;-88
2021/12/03 05:17:53;;;;;;;37.13;26.13;;;;;;;;;;5154861;27;20250;-90
2021/12/03 05:20:20;;;;;;;76.57;48.87;;;;;;;;;;5154861;27;20254;-89
2021/12/03 05:22:47;;;;;;;41.00;27.93;;;;;;;;;;5155182;27;20273;-90
2021/12/03 05:25:14;;;;;;;37.80;24.13;;;;;;;;;;5155225;27;20194;-89
2021/12/03 05:27:42;;;;;;;32.97;23.80;;;;;;;;;;5155189;27;20925;-89
2021/12/03 05:30:11;;;;;;;27.97;18.97;;;;;;;;;;5155339;27;20632;-90
2021/12/03 05:32:38;;;;;;;23.40;17.33;;;;;;;;;;5155422;27;20204;-90
2021/12/03 05:35:07;;;;;;;25.87;19.93;;;;;;;;;;5155131;27;20193;-90
2021/12/03 05:37:35;;;;;;;17.93;15.23;;;;;;;;;;5155195;27;20198;-90
2021/12/03 05:40:02;;;;;;;17.87;15.90;;;;;;;;;;5154154;27;20577;-90
2021/12/03 05:42:29;;;;;;;14.40;10.03;;;;;;;;;;5154784;27;20198;-88
2021/12/03 05:44:58;;;;;;;10.43;8.43;;;;;;;;;;5154965;27;20280;-88
2021/12/03 05:47:27;;;;;;;6.40;5.80;;;;;;;;;;5155020;27;20194;-88
2021/12/03 05:49:54;;;;;;;9.97;8.20;;;;;;;;;;5154622;27;20221;-88
2021/12/03 05:52:21;;;;;;;18.80;15.17;;;;;;;;;;5155243;27;20200;-88
2021/12/03 05:54:48;;;;;;;16.73;12.47;;;;;;;;;;5154436;27;20194;-89
2021/12/03 05:57:16;;;;;;;19.60;12.57;;;;;;;;;;5154622;27;20200;-88
2021/12/03 05:59:43;;;;;;;16.77;11.23;;;;;;;;;;5154772;27;20277;-88
2021/12/03 06:02:10;;;;;;;37.30;20.90;;;;;;;;;;5154428;27;20213;-88
2021/12/03 06:04:39;;;;;;;33.97;25.67;;;;;;;;;;5154837;27;20277;-89
2021/12/03 06:07:07;;;;;;;62.20;42.47;;;;;;;;;;5154373;27;20193;-88
2021/12/03 06:09:34;;;;;;;39.50;31.37;;;;;;;;;;5154292;27;20194;-88
2021/12/03 06:12:02;;;;;;;30.13;23.97;;;;;;;;;;5154655;27;20598;-89
2021/12/03 06:14:29;;;;;;;33.40;22.17;;;;;;;;;;5154514;27;20209;-88
2021/12/03 06:16:57;;;;;;;21.73;18.80;;;;;;;;;;5154817;27;20233;-88
2021/12/03 06:19:27;;;;;;;44.00;33.53;;;;;;;;;;5154564;27;20186;-87
2021/12/03 06:21:56;;;;;;;71.03;51.70;;;;;;;;;;5154508;27;20321;-88
2021/12/03 06:24:23;;;;;;;46.97;35.90;;;;;;;;;;5154255;27;20241;-88
2021/12/03 06:26:51;;;;;;;30.33;26.13;;;;;;;;;;5154464;27;20218;-88
2021/12/03 06:29:18;;;;;;;69.77;53.03;;;;;;;;;;5154140;27;20220;-87
2021/12/03 06:31:45;;;;;;;41.20;30.53;;;;;;;;;;5154097;27;20225;-88
2021/12/03 06:34:12;;;;;;;21.80;19.40;;;;;;;;;;5154130;27;20225;-88
2021/12/03 06:36:39;;;;;;;23.93;20.17;;;;;;;;;;5154479;27;20247;-88
2021/12/03 06:39:09;;;;;;;23.00;19.83;;;;;;;;;;5154381;27;20194;-90
2021/12/03 06:41:36;;;;;;;24.47;18.57;;;;;;;;;;5154307;27;20222;-90
2021/12/03 06:44:05;;;;;;;18.70;16.57;;;;;;;;;;5154500;27;20201;-88
2021/12/03 06:46:32;;;;;;;17.03;14.73;;;;;;;;;;5154199;27;20215;-88
2021/12/03 06:49:00;;;;;;;14.63;13.03;;;;;;;;;;5153999;27;20230;-90
2021/12/03 06:51:27;;;;;;;14.60;13.03;;;;;;;;;;5155177;27;20238;-89
2021/12/03 06:53:59;;;;;;;34.80;28.40;;;;;;;;;;5158502;27;20225;-89
2021/12/03 06:56:33;;;;;;;41.97;26.77;;;;;;;;;;5157907;27;20217;-89
2021/12/03 06:59:01;;;;;;;18.47;15.27;;;;;;;;;;5158102;27;20201;-88
2021/12/03 07:01:28;;;;;;;35.87;28.27;;;;;;;;;;5158122;27;20222;-89
2021/12/03 07:03:55;;;;;;;28.83;20.20;;;;;;;;;;5158141;27;20654;-89
2021/12/03 07:06:22;;;;;;;23.43;17.40;;;;;;;;;;5157609;27;20194;-89
2021/12/03 07:08:50;;;;;;;53.13;34.27;;;;;;;;;;5157875;27;20237;-89
2021/12/03 07:11:18;;;;;;;29.43;21.63;;;;;;;;;;5158149;27;20255;-89
2021/12/03 07:13:48;;;;;;;28.27;21.97;;;;;;;;;;5157707;27;20202;-89
2021/12/03 07:16:15;;;;;;;30.90;23.83;;;;;;;;;;5157638;27;20197;-89
2021/12/03 07:18:43;;;;;;;26.97;20.77;;;;;;;;;;5157796;27;20617;-89
2021/12/03 07:21:10;;;;;;;22.50;18.73;;;;;;;;;;5156684;27;20222;-90
2021/12/03 07:23:38;;;;;;;22.10;16.07;;;;;;;;;;5157668;27;20194;-89
2021/12/03 07:26:05;;;;;;;23.57;18.83;;;;;;;;;;5157544;27;20674;-89
2021/12/03 07:28:33;;;;;;;28.57;22.87;;;;;;;;;;5157264;27;20281;-89
2021/12/03 07:31:02;;;;;;;23.30;16.73;;;;;;;;;;5157053;27;20277;-89
2021/12/03 07:33:31;;;;;;;38.83;29.30;;;;;;;;;;5157333;27;20190;-89
2021/12/03 07:35:58;;;;;;;26.70;21.97;;;;;;;;;;5157680;27;20607;-88
2021/12/03 07:38:26;;;;;;;96.53;60.73;;;;;;;;;;5157309;27;20662;-89
2021/12/03 07:40:53;;;;;;;33.30;25.47;;;;;;;;;;5156934;27;20217;-88
2021/12/03 07:43:21;;;;;;;27.30;20.77;;;;;;;;;;5156993;27;20194;-89
2021/12/03 07:45:50;;;;;;;22.17;18.73;;;;;;;;;;5156878;27;20227;-89
2021/12/03 07:48:21;;;;;;;21.20;19.00;;;;;;;;;;5156893;27;20218;-89
2021/12/03 07:50:49;;;;;;;21.33;19.03;;;;;;;;;;5156658;27;20226;-89
2021/12/03 07:53:18;;;;;;;19.47;17.17;;;;;;;;;;5156970;27;20662;-89
2021/12/03 07:55:46;;;;;;;15.53;13.87;;;;;;;;;;5156786;27;20194;-89
2021/12/03 07:58:13;;;;;;;15.80;14.20;;;;;;;;;;5156672;27;20268;-88
2021/12/03 08:00:41;;;;;;;14.20;10.73;;;;;;;;;;5156523;27;20222;-89
2021/12/03 08:03:08;;;;;;;15.33;13.17;;;;;;;;;;5155982;27;20226;-89
2021/12/03 08:05:37;;;;;;;44.17;32.77;;;;;;;;;;5156723;27;20205;-89
2021/12/03 08:08:05;;;;;;;23.27;17.80;;;;;;;;;;5156586;27;20202;-89
2021/12/03 08:10:34;;;;;;;20.50;17.43;;;;;;;;;;5156443;27;20194;-89
2021/12/03 08:13:02;;;;;;;13.57;12.17;;;;;;;;;;5156720;27;20198;-89
2021/12/03 08:15:30;;;;;;;22.13;14.67;;;;;;;;;;5156429;27;20237;-88
2021/12/03 08:17:57;;;;;;;14.43;12.93;;;;;;;;;;5156624;27;20212;-89
2021/12/03 08:20:24;;;;;;;16.00;12.70;;;;;;;;;;5156499;27;20198;-89
2021/12/03 08:22:53;;;;;;;15.70;12.00;;;;;;;;;;5156130;27;20218;-89
2021/12/03 08:25:20;;;;;;;30.00;17.20;;;;;;;;;;5156115;27;20206;-89
2021/12/03 08:27:47;;;;;;;19.93;13.77;;;;;;;;;;5156130;27;20186;-89
2021/12/03 08:30:17;;;;;;;18.53;10.77;;;;;;;;;;5156422;27;20276;-89
2021/12/03 08:32:44;;;;;;;16.20;13.57;;;;;;;;;;5157068;27;20316;-89
2021/12/03 08:35:11;;;;;;;19.27;12.97;;;;;;;;;;5155895;27;20708;-89
2021/12/03 08:37:44;;;;;;;12.90;11.10;;;;;;;;;;5155484;27;20201;-89
2021/12/03 08:40:13;;;;;;;15.07;11.93;;;;;;;;;;5156212;27;20635;-89
2021/12/03 08:42:41;;;;;;;13.20;8.83;;;;;;;;;;5155900;27;20320;-89
2021/12/03 08:45:09;;;;;;;11.80;9.87;;;;;;;;;;5156146;27;20674;-89
2021/12/03 08:47:37;;;;;;;19.07;12.70;;;;;;;;;;5156193;27;20226;-89
2021/12/03 08:50:10;;;;;;;21.60;16.30;;;;;;;;;;5155585;27;20324;-89
2021/12/03 08:55:23;;;;;;;23.40;17.83;;;;;;;;;;5156356;27;20189;-88
2021/12/03 08:57:50;;;;;;;11.20;8.80;;;;;;;;;;5156000;27;20228;-89
2021/12/03 09:00:19;;;;;;;15.20;11.07;;;;;;;;;;5155742;27;20612;-89
2021/12/03 09:02:47;;;;;;;24.67;17.97;;;;;;;;;;5155861;27;20561;-89
2021/12/03 09:05:15;;;;;;;13.53;9.77;;;;;;;;;;5155404;27;20669;-89
2021/12/03 09:07:43;;;;;;;11.40;8.13;;;;;;;;;;5155659;27;20186;-89
2021/12/03 09:10:13;;;;;;;9.63;6.60;;;;;;;;;;5155497;27;20190;-89
2021/12/03 09:12:42;;;;;;;12.60;9.37;;;;;;;;;;5155281;27;20608;-89
2021/12/03 09:15:12;;;;;;;22.87;20.40;;;;;;;;;;5155098;27;20200;-89
2021/12/03 09:17:49;;;;;;;29.87;25.77;;;;;;;;;;5155133;27;20194;-89
2021/12/03 09:20:27;;;;;;;16.87;14.70;;;;;;;;;;5155557;27;20187;-89
2021/12/03 09:22:57;;;;;;;15.77;12.83;;;;;;;;;;5155164;27;20206;-89
2021/12/03 09:25:32;;;;;;;15.90;11.60;;;;;;;;;;5155068;27;20187;-89
2021/12/03 09:28:02;;;;;;;14.77;11.83;;;;;;;;;;5154901;27;20194;-88
2021/12/03 09:30:36;;;;;;;16.93;11.93;;;;;;;;;;5155210;27;20630;-89
2021/12/03 09:33:05;;;;;;;16.03;11.20;;;;;;;;;;5154972;27;20733;-89
2021/12/03 09:35:34;;;;;;;11.53;9.27;;;;;;;;;;5154764;27;20289;-89
2021/12/03 09:38:02;;;;;;;16.53;12.20;;;;;;;;;;5155177;27;20189;-88
2021/12/03 09:40:31;;;;;;;12.33;9.83;;;;;;;;;;5154841;27;20194;-89
2021/12/03 09:43:00;;;;;;;18.40;11.07;;;;;;;;;;5154704;27;20221;-89
2021/12/03 09:45:27;;;;;;;13.63;9.63;;;;;;;;;;5154665;27;20189;-89
2021/12/03 09:47:55;;;;;;;12.70;11.40;;;;;;;;;;5155190;27;20246;-89
2021/12/03 09:50:23;;;;;;;11.83;9.13;;;;;;;;;;5154526;27;20221;-90
2021/12/03 09:53:05;;;;;;;14.40;10.90;;;;;;;;;;5154536;27;20201;-89
2021/12/03 09:55:33;;;;;;;15.97;10.23;;;;;;;;;;5154693;27;20196;-89
2021/12/03 09:58:14;;;;;;;9.03;6.80;;;;;;;;;;5154502;27;20194;-89
2021/12/03 10:00:45;;;;;;;18.77;12.33;;;;;;;;;;5154452;27;20268;-89
2021/12/03 10:03:22;;;;;;;17.00;8.60;;;;;;;;;;5154369;27;20206;-89
2021/12/03 10:14:34;;;;;;;17.30;10.07;;;;;;;;;;5154762;27;20173;-90
2021/12/03 10:19:53;;;;;;;16.20;9.73;;;;;;;;;;5136623;27;20233;-89
2021/12/03 10:22:36;;;;;;;8.87;6.63;;;;;;;;;;5154153;27;20201;-89
2021/12/03 10:25:26;;;;;;;8.67;7.37;;;;;;;;;;5154359;27;20190;-89
2021/12/03 10:28:25;;;;;;;15.30;9.77;;;;;;;;;;5158131;27;20186;-88
2021/12/03 10:31:28;;;;;;;15.83;9.63;;;;;;;;;;5158741;27;20212;-89
2021/12/03 10:34:07;;;;;;;14.10;8.57;;;;;;;;;;5158425;27;20194;-89
2021/12/03 10:36:50;;;;;;;15.57;9.03;;;;;;;;;;5158596;27;20642;-89
2021/12/03 10:42:17;;;;;;;9.80;7.07;;;;;;;;;;5140499;27;20214;-89
2021/12/03 10:47:57;;;;;;;9.23;5.60;;;;;;;;;;5144348;27;20194;-89
2021/12/03 10:50:41;;;;;;;7.80;5.83;;;;;;;;;;5158028;27;20232;-89
2021/12/03 10:53:21;;;;;;;24.67;12.50;;;;;;;;;;5158078;27;20186;-90
2021/12/03 10:56:18;;;;;;;11.97;6.37;;;;;;;;;;5158165;27;20193;-90
2021/12/03 11:04:56;;;;;;;7.63;5.33;;;;;;;;;;5157977;27;20253;-89
2021/12/03 11:38:40;;;;;;;13.13;7.60;;;;;;;;;;5092581;28;20184;-90
2021/12/03 12:41:15;;;;;;;3.60;3.13;;;;;;;;;;5110606;28;20610;-89
2021/12/03 13:18:13;;;;;;;15.03;9.70;;;;;;;;;;4988275;28;20227;-88
2021/12/03 14:36:34;;;;;;;26.30;14.40;;;;;;;;;;5094559;28;20179;-89
2021/12/03 14:41:56;;;;;;;64.63;38.93;;;;;;;;;;5071360;28;20294;-89
2021/12/03 14:44:27;;;;;;;34.87;20.70;;;;;;;;;;5094613;28;20572;-89
2021/12/03 14:50:23;;;;;;;36.87;25.23;;;;;;;;;;5091216;28;20719;-89
2021/12/03 14:53:11;;;;;;;33.87;24.43;;;;;;;;;;5094864;28;20214;-89
2021/12/03 14:55:38;;;;;;;38.53;27.30;;;;;;;;;;5094168;28;20265;-89
2021/12/03 14:58:10;;;;;;;49.33;31.07;;;;;;;;;;5093955;28;20196;-89
2021/12/03 15:00:47;;;;;;;127.13;77.87;;;;;;;;;;5093880;28;20185;-89
2021/12/03 15:03:29;;;;;;;76.10;49.33;;;;;;;;;;5093908;28;20183;-89
2021/12/03 15:06:12;;;;;;;19.87;13.43;;;;;;;;;;5094328;28;20267;-89
2021/12/03 15:08:48;;;;;;;24.10;19.27;;;;;;;;;;5094082;28;20189;-89
2021/12/03 15:25:08;;;;;;;51.20;31.80;;;;;;;;;;5075897;28;20198;-89
2021/12/03 15:30:45;;;;;;;32.57;21.27;;;;;;;;;;5093681;28;20645;-89
2021/12/03 15:33:20;;;;;;;17.47;12.60;;;;;;;;;;5093560;28;20194;-89
2021/12/03 15:35:56;;;;;;;13.23;10.30;;;;;;;;;;5093446;28;20187;-89
2021/12/03 15:38:36;;;;;;;27.43;22.00;;;;;;;;;;5073078;28;20268;-89
2021/12/03 15:51:46;;;;;;;36.80;20.47;;;;;;;;;;5073051;28;20242;-88
2021/12/03 15:58:20;;;;;;;26.80;18.53;;;;;;;;;;5072594;28;20192;-86
2021/12/03 16:09:07;;;;;;;8.50;4.63;;;;;;;;;;5092453;28;20227;-89
2021/12/03 16:11:41;;;;;;;6.90;5.77;;;;;;;;;;5093176;28;20197;-89
2021/12/03 16:25:57;;;;;;;14.63;10.90;;;;;;;;;;5045053;28;20235;-88
2021/12/03 16:45:27;;;;;;;14.87;11.23;;;;;;;;;;5092672;28;20301;-89
2021/12/03 16:53:35;;;;;;;13.07;6.87;;;;;;;;;;5050405;28;20204;-89
2021/12/03 16:56:07;;;;;;;22.63;15.77;;;;;;;;;;5082256;28;20275;-89
2021/12/03 16:58:37;;;;;;;27.03;13.83;;;;;;;;;;5092662;28;20185;-89
2021/12/03 17:01:08;;;;;;;83.17;44.57;;;;;;;;;;5093901;28;20786;-89
2021/12/03 17:03:43;;;;;;;72.57;37.50;;;;;;;;;;5096547;28;20188;-89
2021/12/03 17:48:23;;;;;;;10.57;4.10;;;;;;;;;;5095915;28;20175;-89
2021/12/03 17:56:16;;;;;;;55.13;31.07;;;;;;;;;;5708534;22;20230;-90
2021/12/03 17:58:45;;;;;;;15.60;8.77;;;;;;;;;;5061694;28;20292;-90
2021/12/03 18:01:17;;;;;;;14.73;8.70;;;;;;;;;;5075010;28;20215;-90
2021/12/03 18:03:52;;;;;;;24.63;15.40;;;;;;;;;;5074526;28;20212;-90
2021/12/03 18:06:49;;;;;;;47.63;30.77;;;;;;;;;;5075154;28;20193;-91
2021/12/03 18:12:35;;;;;;;35.60;21.40;;;;;;;;;;5033609;28;20194;-90
2021/12/03 18:45:33;;;;;;;8.67;6.00;;;;;;;;;;5074043;28;20192;-91
2021/12/03 18:51:00;;;;;;;9.70;5.67;;;;;;;;;;5073429;28;20197;-91
2021/12/03 18:53:48;;;;;;;19.70;13.47;;;;;;;;;;5073748;28;20197;-91
2021/12/03 18:56:18;;;;;;;34.33;20.00;;;;;;;;;;5073137;28;20256;-90
2021/12/03 18:58:46;;;;;;;27.60;16.57;;;;;;;;;;5073933;28;20641;-91
2021/12/03 19:01:14;;;;;;;31.03;22.13;;;;;;;;;;5073566;28;20201;-91
2021/12/03 19:03:58;;;;;;;17.73;12.03;;;;;;;;;;5073717;28;20189;-91
2021/12/03 19:06:28;;;;;;;17.00;10.90;;;;;;;;;;5073693;28;20247;-90
2021/12/03 19:08:59;;;;;;;12.57;6.30;;;;;;;;;;5073534;28;20684;-90
2021/12/03 19:11:30;;;;;;;12.83;6.33;;;;;;;;;;5073594;28;20213;-91
2021/12/03 19:13:57;;;;;;;10.77;6.40;;;;;;;;;;5074022;28;20699;-91
2021/12/03 19:16:25;;;;;;;7.43;4.13;;;;;;;;;;5073464;28;20651;-90
2021/12/03 19:18:55;;;;;;;8.97;4.37;;;;;;;;;;5073844;28;20583;-90
2021/12/03 19:21:24;;;;;;;10.97;6.43;;;;;;;;;;5073507;28;20759;-90
2021/12/03 19:23:52;;;;;;;9.37;3.53;;;;;;;;;;5073445;28;20204;-91
2021/12/03 19:26:21;;;;;;;4.63;3.63;;;;;;;;;;5073307;28;20199;-90
2021/12/03 19:28:49;;;;;;;9.50;3.07;;;;;;;;;;5073356;28;20185;-91
2021/12/03 19:31:16;;;;;;;11.83;4.43;;;;;;;;;;5073243;28;20197;-91
2021/12/03 19:33:44;;;;;;;14.57;5.77;;;;;;;;;;5073161;28;20231;-91
2021/12/03 19:36:13;;;;;;;13.23;8.07;;;;;;;;;;5073083;28;20224;-91
2021/12/03 19:38:40;;;;;;;12.33;8.43;;;;;;;;;;5073127;28;20189;-90
2021/12/03 19:41:15;;;;;;;20.07;14.70;;;;;;;;;;5073279;28;20189;-90
2021/12/03 19:43:46;;;;;;;7.70;5.40;;;;;;;;;;5072940;28;20230;-91
2021/12/03 19:46:19;;;;;;;12.30;3.83;;;;;;;;;;5073361;28;20250;-91
2021/12/03 19:48:50;;;;;;;6.33;3.83;;;;;;;;;;5073142;28;20189;-90
2021/12/03 19:51:20;;;;;;;12.77;7.40;;;;;;;;;;5073009;28;20197;-91
2021/12/03 19:53:55;;;;;;;7.87;4.87;;;;;;;;;;5072781;28;20719;-91
2021/12/03 19:56:22;;;;;;;13.60;8.03;;;;;;;;;;5072786;28;20228;-91
2021/12/03 19:58:52;;;;;;;16.80;11.93;;;;;;;;;;5072888;28;20193;-91
2021/12/03 20:01:19;;;;;;;61.30;35.20;;;;;;;;;;5072945;28;20190;-92
2021/12/03 20:03:48;;;;;;;41.10;26.30;;;;;;;;;;5072963;28;20196;-91
2021/12/03 20:06:16;;;;;;;36.77;18.13;;;;;;;;;;5073183;28;20201;-91
2021/12/03 20:08:43;;;;;;;8.93;3.60;;;;;;;;;;5072863;28;20232;-90
2021/12/03 20:11:10;;;;;;;7.47;3.47;;;;;;;;;;5072896;28;20631;-90
2021/12/03 20:13:42;;;;;;;7.03;2.30;;;;;;;;;;5072795;28;20193;-91
2021/12/03 20:16:20;;;;;;;39.03;21.63;;;;;;;;;;5072654;28;20259;-91
2021/12/03 20:18:50;;;;;;;20.67;9.33;;;;;;;;;;5073085;28;20539;-91
2021/12/03 20:21:19;;;;;;;9.20;4.37;;;;;;;;;;5072555;28;20679;-92
2021/12/03 20:23:55;;;;;;;3.20;2.27;;;;;;;;;;5072588;28;20204;-91
2021/12/03 20:26:30;;;;;;;8.27;2.20;;;;;;;;;;5072866;28;20203;-92
2021/12/03 20:29:00;;;;;;;7.47;2.97;;;;;;;;;;5072840;28;20265;-91
2021/12/03 20:31:33;;;;;;;12.67;4.50;;;;;;;;;;5072387;28;20190;-89
2021/12/03 20:34:08;;;;;;;14.57;6.03;;;;;;;;;;5073002;28;20201;-90
2021/12/03 20:36:48;;;;;;;5.10;2.77;;;;;;;;;;5075676;28;20219;-92
2021/12/03 20:39:18;;;;;;;9.67;3.37;;;;;;;;;;5076955;28;20204;-91
2021/12/03 20:41:56;;;;;;;10.17;3.70;;;;;;;;;;5076499;28;20684;-91
2021/12/03 20:47:38;;;;;;;3.27;2.40;;;;;;;;;;4995370;28;20200;-91
2021/12/03 20:50:35;;;;;;;7.57;2.83;;;;;;;;;;5067138;28;20193;-92
2021/12/03 20:53:15;;;;;;;24.17;13.83;;;;;;;;;;5076147;28;20288;-91
2021/12/03 21:09:36;;;;;;;8.43;4.87;;;;;;;;;;5075983;28;20694;-91
2021/12/03 21:12:06;;;;;;;9.37;5.17;;;;;;;;;;5076203;28;20718;-91
2021/12/03 21:14:34;;;;;;;8.63;4.37;;;;;;;;;;5076029;28;20297;-92
2021/12/03 21:17:25;;;;;;;6.87;4.30;;;;;;;;;;5075774;28;20693;-92
2021/12/03 21:20:01;;;;;;;9.67;3.57;;;;;;;;;;5075782;28;20199;-92
2021/12/03 21:22:31;;;;;;;7.13;3.50;;;;;;;;;;5076069;28;20215;-91
2021/12/03 21:25:03;;;;;;;6.33;3.73;;;;;;;;;;5076189;28;20213;-92
2021/12/03 21:27:34;;;;;;;7.53;4.63;;;;;;;;;;5075783;28;20272;-91
2021/12/03 21:33:00;;;;;;;10.47;4.50;;;;;;;;;;5039379;28;20200;-91
2021/12/03 21:38:45;;;;;;;11.10;5.37;;;;;;;;;;5075682;28;20270;-91
2021/12/03 21:41:23;;;;;;;10.47;5.63;;;;;;;;;;5075787;28;20197;-91